createdAt,value
2022-09-02T00:01:28.065Z,99.90
2022-09-02T00:04:05.912Z,99.90
2022-09-02T00:06:36.196Z,99.90
2022-09-02T00:09:05.480Z,99.90
2022-09-02T00:11:36.361Z,99.90
2022-09-02T00:14:07.092Z,99.90
2022-09-02T00:16:34.700Z,99.90
2022-09-02T00:19:04.722Z,99.90
2022-09-02T00:21:34.586Z,99.90
2022-09-02T00:24:07.596Z,99.90
2022-09-02T00:26:35.815Z,99.90
2022-09-02T00:29:03.138Z,99.90
2022-09-02T00:31:30.371Z,99.90
2022-09-02T00:34:00.219Z,99.90
2022-09-02T00:36:29.412Z,99.90
2022-09-02T00:38:56.438Z,99.90
2022-09-02T00:41:28.443Z,99.90
2022-09-02T00:44:07.649Z,99.90
2022-09-02T00:46:36.756Z,99.90
2022-09-02T00:49:06.429Z,99.90
2022-09-02T00:51:39.074Z,99.90
2022-09-02T00:54:07.454Z,99.90
2022-09-02T00:56:38.348Z,99.90
2022-09-02T00:59:05.770Z,99.90
2022-09-02T01:01:34.985Z,99.90
2022-09-02T01:04:04.719Z,99.90
2022-09-02T01:06:34.201Z,99.90
2022-09-02T01:09:10.281Z,99.90
2022-09-02T01:11:44.881Z,99.90
2022-09-02T01:14:13.918Z,99.90
2022-09-02T01:16:51.007Z,99.90
2022-09-02T01:19:25.615Z,99.90
2022-09-02T01:21:56.999Z,99.90
2022-09-02T01:24:27.652Z,99.90
2022-09-02T01:26:56.669Z,99.90
2022-09-02T01:29:25.442Z,99.90
2022-09-02T01:31:57.349Z,99.90
2022-09-02T01:34:27.937Z,99.90
2022-09-02T01:36:55.217Z,99.90
2022-09-02T01:39:26.616Z,99.90
2022-09-02T01:41:53.612Z,99.90
2022-09-02T01:44:24.297Z,99.90
2022-09-02T01:46:51.346Z,99.90
2022-09-02T01:49:18.400Z,99.90
2022-09-02T01:51:47.820Z,99.90
2022-09-02T01:54:14.906Z,99.90
2022-09-02T01:56:45.423Z,99.90
2022-09-02T01:59:17.978Z,99.90
2022-09-02T02:01:47.876Z,99.90
2022-09-02T02:04:18.716Z,99.90
2022-09-02T02:06:52.506Z,99.90
2022-09-02T02:09:23.509Z,99.90
2022-09-02T02:11:52.913Z,99.90
2022-09-02T02:14:22.834Z,99.90
2022-09-02T02:16:50.552Z,99.90
2022-09-02T02:19:18.474Z,99.90
2022-09-02T02:21:46.178Z,99.90
2022-09-02T02:24:14.372Z,99.90
2022-09-02T02:26:43.757Z,99.90
2022-09-02T02:29:11.803Z,99.90
2022-09-02T02:31:42.725Z,99.90
2022-09-02T02:34:10.807Z,99.90
2022-09-02T02:36:40.893Z,99.90
2022-09-02T02:39:09.933Z,99.90
2022-09-02T02:41:39.848Z,99.90
2022-09-02T02:48:36.499Z,99.90
2022-09-02T02:51:08.056Z,99.90
2022-09-02T02:53:36.283Z,99.90
2022-09-02T02:56:05.459Z,99.90
2022-09-02T02:58:32.705Z,99.90
2022-09-02T03:01:02.263Z,99.90
2022-09-02T03:03:31.055Z,99.90
2022-09-02T03:06:00.898Z,99.90
2022-09-02T03:08:29.750Z,99.90
2022-09-02T03:10:59.928Z,99.90
2022-09-02T03:13:29.954Z,99.90
2022-09-02T03:16:00.629Z,99.90
2022-09-02T03:18:27.586Z,99.90
2022-09-02T03:20:55.346Z,99.90
2022-09-02T03:23:23.373Z,99.90
2022-09-02T03:25:50.716Z,99.90
2022-09-02T03:28:27.267Z,99.90
2022-09-02T03:30:57.199Z,99.90
2022-09-02T03:33:25.902Z,99.90
2022-09-02T03:35:56.836Z,99.90
2022-09-02T03:38:24.415Z,99.90
2022-09-02T03:40:53.578Z,99.90
2022-09-02T03:43:23.174Z,99.90
2022-09-02T03:45:52.510Z,99.90
2022-09-02T03:48:23.031Z,99.90
2022-09-02T03:50:50.523Z,99.90
2022-09-02T03:53:21.687Z,99.90
2022-09-02T03:55:55.077Z,99.90
2022-09-02T03:58:27.114Z,99.90
2022-09-02T04:00:59.866Z,99.90
2022-09-02T04:03:27.755Z,99.90
2022-09-02T04:05:57.654Z,99.90
2022-09-02T04:08:29.438Z,99.90
2022-09-02T04:11:06.653Z,99.90
2022-09-02T04:13:36.431Z,99.90
2022-09-02T04:16:16.293Z,99.90
2022-09-02T04:18:43.377Z,99.90
2022-09-02T04:21:15.096Z,99.90
2022-09-02T04:23:44.318Z,99.90
2022-09-02T04:26:14.463Z,99.90
2022-09-02T04:28:44.949Z,99.90
2022-09-02T04:31:14.574Z,99.90
2022-09-02T04:33:41.967Z,99.90
2022-09-02T04:36:14.631Z,99.90
2022-09-02T04:43:13.800Z,99.90
2022-09-02T04:45:42.118Z,99.90
2022-09-02T04:48:12.283Z,99.90
2022-09-02T04:50:42.064Z,99.90
2022-09-02T04:53:11.987Z,99.90
2022-09-02T04:55:43.278Z,99.90
2022-09-02T04:58:12.932Z,99.90
2022-09-02T05:00:45.449Z,99.90
2022-09-02T05:03:14.835Z,99.90
2022-09-02T05:05:44.406Z,99.90
2022-09-02T05:08:13.200Z,99.90
2022-09-02T05:10:44.078Z,99.90
2022-09-02T05:13:13.580Z,99.90
2022-09-02T05:15:40.963Z,99.90
2022-09-02T05:18:09.967Z,99.90
2022-09-02T05:20:39.683Z,99.90
2022-09-02T05:23:10.056Z,99.90
2022-09-02T05:25:43.128Z,99.90
2022-09-02T05:28:11.308Z,99.90
2022-09-02T05:30:40.288Z,99.90
2022-09-02T05:33:10.048Z,99.90
2022-09-02T05:35:45.536Z,99.90
2022-09-02T05:38:15.087Z,99.90
2022-09-02T05:40:42.229Z,99.90
2022-09-02T05:43:09.947Z,99.90
2022-09-02T05:45:39.460Z,99.90
2022-09-02T05:48:27.100Z,99.90
2022-09-02T05:50:57.659Z,99.90
2022-09-02T05:53:27.103Z,99.90
2022-09-02T05:55:55.323Z,99.90
2022-09-02T05:58:25.383Z,99.90
2022-09-02T06:00:56.257Z,99.90
2022-09-02T06:03:28.733Z,99.90
2022-09-02T06:06:06.598Z,99.90
2022-09-02T06:08:36.785Z,99.90
2022-09-02T06:11:04.885Z,99.90
2022-09-02T06:13:35.518Z,99.90
2022-09-02T06:16:05.247Z,99.90
2022-09-02T06:18:32.688Z,99.90
2022-09-02T06:21:02.710Z,99.90
2022-09-02T06:23:35.992Z,99.90
2022-09-02T06:26:03.947Z,99.90
2022-09-02T06:28:31.105Z,99.90
2022-09-02T06:30:59.580Z,99.90
2022-09-02T06:33:26.723Z,99.90
2022-09-02T06:35:54.724Z,99.90
2022-09-02T06:38:21.671Z,99.90
2022-09-02T06:40:54.855Z,99.90
2022-09-02T06:43:37.620Z,99.90
2022-09-02T06:46:38.615Z,99.90
2022-09-02T06:49:09.352Z,99.90
2022-09-02T06:51:41.829Z,99.90
2022-09-02T06:54:14.045Z,99.90
2022-09-02T06:56:47.195Z,99.90
2022-09-02T06:59:21.734Z,99.90
2022-09-02T07:01:54.856Z,99.90
2022-09-02T07:04:43.069Z,99.90
2022-09-02T07:07:14.510Z,99.90
2022-09-02T07:09:49.244Z,99.90
2022-09-02T07:12:19.661Z,99.90
2022-09-02T07:15:07.682Z,99.90
2022-09-02T07:17:43.075Z,99.90
2022-09-02T07:20:23.460Z,99.90
2022-09-02T07:22:56.558Z,99.90
2022-09-02T07:25:28.748Z,99.90
2022-09-02T07:27:58.172Z,99.90
2022-09-02T07:30:26.152Z,99.90
2022-09-02T07:33:01.248Z,99.90
2022-09-02T07:35:33.069Z,99.90
2022-09-02T07:38:00.003Z,99.90
2022-09-02T07:40:26.986Z,99.90
2022-09-02T07:42:54.889Z,99.90
2022-09-02T07:45:24.452Z,99.90
2022-09-02T07:47:55.060Z,99.90
2022-09-02T07:50:27.008Z,99.90
2022-09-02T07:52:56.888Z,99.90
2022-09-02T07:55:26.161Z,99.90
2022-09-02T07:57:56.295Z,99.90
2022-09-02T08:00:27.693Z,99.90
2022-09-02T08:02:57.847Z,99.90
2022-09-02T08:05:31.797Z,99.90
2022-09-02T08:08:00.344Z,99.90
2022-09-02T08:10:29.563Z,99.90
2022-09-02T08:12:58.323Z,99.90
2022-09-02T08:15:28.679Z,99.90
2022-09-02T08:17:56.304Z,99.90
2022-09-02T08:20:23.180Z,99.90
2022-09-02T08:22:59.258Z,99.90
2022-09-02T08:25:37.002Z,99.90
2022-09-02T08:28:04.268Z,99.90
2022-09-02T08:30:31.521Z,99.90
2022-09-02T08:32:58.621Z,99.90
2022-09-02T08:35:28.490Z,99.90
2022-09-02T08:37:59.556Z,99.90
2022-09-02T08:40:41.875Z,99.40
2022-09-02T08:43:40.217Z,99.20
2022-09-02T08:46:12.098Z,99.00
2022-09-02T08:48:45.154Z,97.40
2022-09-02T08:51:20.111Z,97.20
2022-09-02T08:53:52.737Z,96.50
2022-09-02T08:56:20.116Z,97.50
2022-09-02T08:58:56.468Z,96.20
2022-09-02T09:01:44.146Z,95.70
2022-09-02T09:04:22.818Z,94.80
2022-09-02T09:06:49.703Z,95.90
2022-09-02T09:09:34.620Z,94.80
2022-09-02T09:12:17.911Z,94.10
2022-09-02T09:14:53.282Z,94.40
2022-09-02T09:17:28.160Z,93.10
2022-09-02T09:20:05.956Z,91.80
2022-09-02T09:22:38.662Z,92.50
2022-09-02T09:25:08.999Z,92.60
2022-09-02T09:27:35.867Z,91.80
2022-09-02T09:30:03.297Z,90.80
2022-09-02T09:32:40.801Z,90.70
2022-09-02T09:35:09.527Z,89.60
2022-09-02T09:37:50.289Z,86.10
2022-09-02T09:40:20.695Z,88.40
2022-09-02T09:42:55.256Z,88.80
2022-09-02T09:45:34.642Z,85.80
2022-09-02T09:48:10.559Z,86.30
2022-09-02T09:50:37.384Z,83.10
2022-09-02T09:53:24.141Z,87.20
2022-09-02T09:56:06.635Z,86.70
2022-09-02T09:58:39.370Z,86.90
2022-09-02T10:01:31.038Z,86.20
2022-09-02T10:04:20.693Z,87.40
2022-09-02T10:06:53.089Z,87.40
2022-09-02T10:09:20.084Z,91.40
2022-09-02T10:12:01.061Z,90.40
2022-09-02T10:14:52.508Z,91.70
2022-09-02T10:17:24.482Z,92.70
2022-09-02T10:20:19.237Z,90.80
2022-09-02T10:22:59.561Z,92.80
2022-09-02T10:25:39.141Z,92.20
2022-09-02T10:28:30.922Z,93.20
2022-09-02T10:31:19.514Z,93.50
2022-09-02T10:33:52.205Z,94.30
2022-09-02T10:36:36.325Z,94.10
2022-09-02T10:39:28.740Z,94.10
2022-09-02T10:42:05.040Z,93.70
2022-09-02T10:44:47.869Z,95.70
2022-09-02T10:47:37.406Z,95.80
2022-09-02T10:50:23.930Z,92.70
2022-09-02T10:53:20.053Z,94.30
2022-09-02T10:55:54.662Z,92.90
2022-09-02T10:58:46.070Z,93.00
2022-09-02T11:01:28.343Z,93.00
2022-09-02T11:04:03.514Z,94.10
2022-09-02T11:06:58.781Z,95.30
2022-09-02T11:09:32.617Z,94.60
2022-09-02T11:12:03.124Z,94.80
2022-09-02T11:15:12.186Z,95.60
2022-09-02T11:18:00.229Z,94.50
2022-09-02T11:20:54.696Z,95.20
2022-09-02T11:23:59.417Z,94.20
2022-09-02T11:26:32.382Z,94.10
2022-09-02T11:29:02.901Z,94.70
2022-09-02T11:31:44.912Z,95.40
2022-09-02T11:34:34.961Z,94.10
2022-09-02T11:37:05.603Z,94.20
2022-09-02T11:39:54.320Z,94.80
2022-09-02T11:42:50.492Z,94.00
2022-09-02T11:45:43.925Z,96.00
2022-09-02T11:48:39.963Z,95.80
2022-09-02T11:51:06.854Z,95.00
2022-09-02T11:53:40.866Z,93.90
2022-09-02T11:56:17.015Z,93.80
2022-09-02T11:58:49.668Z,94.30
2022-09-02T12:01:16.590Z,95.00
2022-09-02T12:07:08.643Z,96.10
2022-09-02T12:09:56.778Z,94.20
2022-09-02T12:12:39.095Z,94.30
2022-09-02T12:15:08.360Z,95.50
2022-09-02T12:17:51.881Z,94.60
2022-09-02T12:20:41.391Z,93.90
2022-09-02T12:23:38.566Z,93.30
2022-09-02T12:26:12.921Z,93.20
2022-09-02T12:28:50.146Z,92.70
2022-09-02T12:31:42.471Z,94.10
2022-09-02T12:34:21.072Z,93.20
2022-09-02T12:37:03.574Z,93.40
2022-09-02T12:39:35.192Z,93.70
2022-09-02T12:42:07.160Z,93.20
2022-09-02T12:44:47.231Z,93.70
2022-09-02T12:47:20.330Z,93.90
2022-09-02T12:49:53.802Z,92.40
2022-09-02T12:52:39.833Z,92.80
2022-09-02T12:55:29.928Z,94.70
2022-09-02T12:58:17.013Z,92.80
2022-09-02T13:00:46.586Z,94.20
2022-09-02T13:03:38.307Z,91.80
2022-09-02T13:06:38.622Z,94.60
2022-09-02T13:09:36.595Z,92.40
2022-09-02T13:12:40.231Z,92.90
2022-09-02T13:15:41.992Z,92.70
2022-09-02T13:18:26.645Z,92.50
2022-09-02T13:21:11.724Z,92.50
2022-09-02T13:23:41.551Z,94.40
2022-09-02T13:26:53.153Z,92.10
2022-09-02T13:29:47.280Z,92.70
2022-09-02T13:32:20.333Z,92.60
2022-09-02T13:34:49.808Z,93.10
2022-09-02T13:37:29.834Z,92.80
2022-09-02T13:39:57.354Z,93.00
2022-09-02T13:42:27.623Z,93.00
2022-09-02T13:45:13.792Z,92.40
2022-09-02T13:47:51.890Z,92.60
2022-09-02T13:50:22.044Z,94.20
2022-09-02T13:55:51.614Z,93.70
2022-09-02T13:58:42.636Z,92.20
2022-09-02T14:01:21.231Z,92.80
2022-09-02T14:03:51.803Z,93.50
2022-09-02T14:06:30.697Z,92.30
2022-09-02T14:09:01.306Z,91.60
2022-09-02T14:11:30.000Z,90.80
2022-09-02T14:14:03.483Z,87.80
2022-09-02T14:16:37.524Z,85.10
2022-09-02T14:19:09.056Z,80.70
2022-09-02T14:21:37.562Z,84.30
2022-09-02T14:24:05.202Z,74.70
2022-09-02T14:26:36.621Z,76.90
2022-09-02T14:29:08.093Z,70.00
2022-09-02T14:31:35.380Z,65.90
2022-09-02T14:34:02.630Z,72.20
2022-09-02T14:36:37.950Z,75.60
2022-09-02T14:39:19.157Z,77.40
2022-09-02T14:41:50.102Z,74.90
2022-09-02T14:44:17.016Z,77.70
2022-09-02T14:46:46.689Z,79.00
2022-09-02T14:49:29.732Z,81.50
2022-09-02T14:52:03.387Z,81.90
2022-09-02T14:54:43.002Z,85.60
2022-09-02T14:57:24.106Z,85.20
2022-09-02T14:59:51.965Z,87.10
2022-09-02T15:02:28.937Z,89.40
2022-09-02T15:05:02.370Z,87.30
2022-09-02T15:07:31.704Z,89.00
2022-09-02T15:09:58.949Z,89.80
2022-09-02T15:12:43.019Z,90.50
2022-09-02T15:15:09.990Z,89.80
2022-09-02T15:17:36.911Z,87.20
2022-09-02T15:20:04.171Z,87.50
2022-09-02T15:22:33.700Z,86.30
2022-09-02T15:25:04.334Z,88.00
2022-09-02T15:27:31.168Z,85.00
2022-09-02T15:29:57.973Z,84.40
2022-09-02T15:32:26.837Z,83.40
2022-09-02T15:34:58.500Z,86.90
2022-09-02T15:37:27.912Z,86.90
2022-09-02T15:39:54.861Z,86.40
2022-09-02T15:42:24.115Z,86.90
2022-09-02T15:44:51.000Z,86.50
2022-09-02T15:47:17.877Z,83.30
2022-09-02T15:49:44.849Z,78.80
2022-09-02T15:52:12.043Z,82.70
2022-09-02T15:54:38.942Z,83.50
2022-09-02T15:57:05.810Z,82.40
2022-09-02T15:59:34.968Z,84.40
2022-09-02T16:02:02.330Z,83.70
2022-09-02T16:04:29.476Z,84.50
2022-09-02T16:06:56.455Z,85.00
2022-09-02T16:09:24.130Z,81.10
2022-09-02T16:11:53.627Z,83.00
2022-09-02T16:14:24.076Z,82.60
2022-09-02T16:16:54.983Z,83.80
2022-09-02T16:19:27.819Z,82.30
2022-09-02T16:21:59.412Z,83.80
2022-09-02T16:24:28.888Z,84.50
2022-09-02T16:26:58.215Z,85.70
2022-09-02T16:29:28.047Z,85.20
2022-09-02T16:32:14.525Z,86.70
2022-09-02T16:34:49.093Z,85.80
2022-09-02T16:37:17.492Z,84.40
2022-09-02T16:39:44.620Z,88.70
2022-09-02T16:42:11.582Z,88.50
2022-09-02T16:44:41.539Z,89.10
2022-09-02T16:47:12.841Z,86.80
2022-09-02T16:49:41.072Z,86.50
2022-09-02T16:52:10.630Z,89.50
2022-09-02T16:54:40.800Z,90.60
2022-09-02T16:57:10.582Z,88.80
2022-09-02T16:59:37.611Z,87.40
2022-09-02T17:02:04.740Z,89.90
2022-09-02T17:04:31.644Z,90.10
2022-09-02T17:07:01.021Z,90.40
2022-09-02T17:09:31.279Z,90.30
2022-09-02T17:12:00.760Z,88.10
2022-09-02T17:14:27.764Z,89.40
2022-09-02T17:16:54.928Z,88.70
2022-09-02T17:19:28.423Z,90.20
2022-09-02T17:22:01.356Z,87.80
2022-09-02T17:24:30.900Z,88.80
2022-09-02T17:27:01.234Z,89.60
2022-09-02T17:29:48.859Z,90.10
2022-09-02T17:32:19.775Z,89.30
2022-09-02T17:34:48.466Z,88.30
2022-09-02T17:37:15.371Z,88.20
2022-09-02T17:39:42.314Z,88.60
2022-09-02T17:42:09.260Z,88.20
2022-09-02T17:44:40.320Z,88.60
2022-09-02T17:47:14.268Z,90.50
2022-09-02T17:49:44.406Z,90.80
2022-09-02T17:52:17.026Z,88.90
2022-09-02T17:54:45.673Z,90.50
2022-09-02T17:57:42.443Z,90.40
2022-09-02T18:00:16.126Z,90.30
2022-09-02T18:02:57.350Z,90.70
2022-09-02T18:05:32.508Z,90.70
2022-09-02T18:08:37.075Z,90.20
2022-09-02T18:11:05.359Z,91.20
2022-09-02T18:13:39.798Z,90.40
2022-09-02T18:16:28.222Z,90.60
2022-09-02T18:19:35.209Z,90.70
2022-09-02T18:22:07.261Z,90.60
2022-09-02T18:24:56.357Z,90.80
2022-09-02T18:27:56.521Z,91.10
2022-09-02T18:30:46.058Z,90.90
2022-09-02T18:33:43.855Z,91.10
2022-09-02T18:36:35.729Z,91.00
2022-09-02T18:39:18.612Z,91.10
2022-09-02T18:42:07.974Z,91.30
2022-09-02T18:44:46.227Z,91.80
2022-09-02T18:47:23.915Z,91.40
2022-09-02T18:49:56.762Z,91.60
2022-09-02T18:52:32.746Z,91.80
2022-09-02T18:54:59.575Z,91.70
2022-09-02T18:57:33.599Z,91.70
2022-09-02T19:00:14.070Z,91.70
2022-09-02T19:02:50.275Z,91.80
2022-09-02T19:05:23.842Z,92.00
2022-09-02T19:08:21.602Z,92.00
2022-09-02T19:10:48.623Z,92.30
2022-09-02T19:13:19.588Z,92.30
2022-09-02T19:15:46.400Z,92.30
2022-09-02T19:18:13.569Z,92.30
2022-09-02T19:20:43.623Z,92.50
2022-09-02T19:23:12.727Z,92.50
2022-09-02T19:25:46.886Z,92.70
2022-09-02T19:28:15.565Z,92.60
2022-09-02T19:30:44.774Z,92.60
2022-09-02T19:33:13.828Z,92.70
2022-09-02T19:35:49.140Z,92.70
2022-09-02T19:38:17.577Z,92.80
2022-09-02T19:40:49.545Z,93.00
2022-09-02T19:43:16.781Z,93.00
2022-09-02T19:45:50.690Z,93.40
2022-09-02T19:48:18.327Z,93.50
2022-09-02T19:50:47.423Z,93.10
2022-09-02T19:53:25.736Z,93.20
2022-09-02T19:55:55.121Z,93.60
2022-09-02T19:58:24.553Z,93.80
2022-09-02T20:01:01.177Z,93.40
2022-09-02T20:03:36.871Z,93.70
2022-09-02T20:06:07.376Z,93.60
2022-09-02T20:08:34.694Z,93.90
2022-09-02T20:11:05.087Z,94.00
2022-09-02T20:13:40.908Z,94.10
2022-09-02T20:16:26.144Z,94.00
2022-09-02T20:18:56.915Z,93.80
2022-09-02T20:21:28.579Z,94.10
2022-09-02T20:24:01.586Z,94.20
2022-09-02T20:27:02.104Z,93.80
2022-09-02T20:30:00.575Z,94.10
2022-09-02T20:32:52.576Z,94.10
2022-09-02T20:35:58.130Z,94.10
2022-09-02T20:38:37.077Z,94.30
2022-09-02T20:41:21.874Z,94.70
2022-09-02T20:44:07.009Z,94.50
2022-09-02T20:46:54.172Z,94.70
2022-09-02T20:49:43.584Z,94.70
2022-09-02T20:52:17.711Z,94.90
2022-09-02T20:54:55.632Z,94.80
2022-09-02T20:57:48.299Z,95.30
2022-09-02T21:00:20.130Z,95.30
2022-09-02T21:03:05.408Z,95.50
2022-09-02T21:05:40.472Z,95.20
2022-09-02T21:08:26.864Z,95.30
2022-09-02T21:11:00.627Z,95.00
2022-09-02T21:13:58.826Z,95.40
2022-09-02T21:16:37.573Z,95.30
2022-09-02T21:19:29.219Z,95.50
2022-09-02T21:22:14.021Z,95.40
2022-09-02T21:25:10.059Z,95.50
2022-09-02T21:28:03.380Z,95.60
2022-09-02T21:30:38.750Z,95.60
2022-09-02T21:33:10.476Z,95.70
2022-09-02T21:35:50.013Z,95.60
2022-09-02T21:38:24.349Z,95.60
2022-09-02T21:41:21.730Z,95.70
2022-09-02T21:44:22.825Z,95.60
2022-09-02T21:46:57.825Z,95.90
2022-09-02T21:49:37.253Z,95.80
2022-09-02T21:52:48.437Z,95.80
2022-09-02T21:55:43.717Z,96.30
2022-09-02T21:58:19.590Z,96.30
2022-09-02T22:01:00.979Z,96.30
2022-09-02T22:03:43.507Z,96.10
2022-09-02T22:06:31.406Z,96.40
2022-09-02T22:09:14.288Z,96.10
2022-09-02T22:11:58.593Z,96.10
2022-09-02T22:14:31.352Z,96.60
2022-09-02T22:17:12.541Z,96.30
2022-09-02T22:19:42.492Z,96.40
2022-09-02T22:22:13.987Z,96.20
2022-09-02T22:24:41.034Z,96.30
2022-09-02T22:27:34.562Z,96.60
2022-09-02T22:30:16.854Z,96.30
2022-09-02T22:32:48.607Z,96.30
2022-09-02T22:35:30.164Z,96.30
2022-09-02T22:38:44.200Z,96.50
2022-09-02T22:41:20.000Z,96.50
2022-09-02T22:44:12.961Z,96.40
2022-09-02T22:47:23.367Z,96.50
2022-09-02T22:50:12.414Z,96.80
2022-09-02T22:52:54.971Z,96.70
2022-09-02T22:55:46.378Z,96.50
2022-09-02T22:58:44.133Z,96.90
2022-09-02T23:01:36.325Z,96.90
2022-09-02T23:04:24.507Z,96.50
2022-09-02T23:07:05.688Z,96.40
2022-09-02T23:09:47.833Z,96.60
2022-09-02T23:12:25.060Z,96.60
2022-09-02T23:15:04.114Z,96.80
2022-09-02T23:18:08.592Z,97.10
2022-09-02T23:20:45.275Z,97.10
2022-09-02T23:23:37.624Z,97.00
2022-09-02T23:26:31.798Z,97.10
2022-09-02T23:29:13.881Z,97.00
2022-09-02T23:31:50.686Z,97.30
2022-09-02T23:34:45.751Z,97.10
2022-09-02T23:37:34.968Z,97.30
2022-09-02T23:40:18.690Z,97.00
2022-09-02T23:42:47.350Z,97.20
2022-09-02T23:45:30.082Z,97.40
2022-09-02T23:48:20.491Z,97.20
2022-09-02T23:51:19.187Z,97.40
2022-09-02T23:53:53.047Z,97.40
2022-09-02T23:56:33.678Z,97.40
2022-09-02T23:59:27.299Z,97.30
